Watts, Oklahoma
Current Conditions -  °F | °C
As of 4:35 PM on Tuesday 21 Oct 2014 (Local Time) from KSLG Reporting Station
Clear Clear  
Wind Chill: 75°   Ceiling: Unl
Heat Index: 75°   Visibility: 10mi
Dew Point: 54°   Wind: 0mph
Humidity: 47%   Direction: NA
Pressure: 30.08"   Gusts: NA
Location:  36.11°N, 94.57°W
Report Text: KSLG 212135Z AUTO 00000KT 10SM CLR 24/12 A3008 RMK AO1
Loading
Personal Weather Stations






























Interactive Weather Map New forecast layout! Learn more

10-Day Weather Forecast

Advertisements
Track Severe Weather on mobile